sensor_id;sensor_type;location;lat;lon;timestamp;temperature;humidity
40516;DHT22;26216;53.724;9.898;2023-06-05T00:00:15;13.30;86.70
40516;DHT22;26216;53.724;9.898;2023-06-05T00:02:42;13.30;86.90
40516;DHT22;26216;53.724;9.898;2023-06-05T00:05:08;13.30;86.80
40516;DHT22;26216;53.724;9.898;2023-06-05T00:07:34;13.20;86.80
40516;DHT22;26216;53.724;9.898;2023-06-05T00:10:04;13.20;86.90
40516;DHT22;26216;53.724;9.898;2023-06-05T00:12:30;13.20;87.00
40516;DHT22;26216;53.724;9.898;2023-06-05T00:14:56;13.20;87.00
40516;DHT22;26216;53.724;9.898;2023-06-05T00:17:22;13.10;87.00
40516;DHT22;26216;53.724;9.898;2023-06-05T00:19:48;13.10;87.00
40516;DHT22;26216;53.724;9.898;2023-06-05T00:22:14;13.10;87.10
40516;DHT22;26216;53.724;9.898;2023-06-05T00:24:40;13.00;87.00
40516;DHT22;26216;53.724;9.898;2023-06-05T00:27:05;13.00;87.10
40516;DHT22;26216;53.724;9.898;2023-06-05T00:29:31;13.00;87.10
40516;DHT22;26216;53.724;9.898;2023-06-05T00:31:57;13.00;87.30
40516;DHT22;26216;53.724;9.898;2023-06-05T00:34:23;12.90;87.10
40516;DHT22;26216;53.724;9.898;2023-06-05T00:36:49;12.90;87.30
40516;DHT22;26216;53.724;9.898;2023-06-05T00:39:16;12.90;87.40
40516;DHT22;26216;53.724;9.898;2023-06-05T00:41:45;12.90;87.40
40516;DHT22;26216;53.724;9.898;2023-06-05T00:44:11;12.80;87.40
40516;DHT22;26216;53.724;9.898;2023-06-05T00:46:40;12.80;87.50
40516;DHT22;26216;53.724;9.898;2023-06-05T00:49:07;12.80;87.80
40516;DHT22;26216;53.724;9.898;2023-06-05T00:51:33;12.70;87.80
40516;DHT22;26216;53.724;9.898;2023-06-05T00:54:00;12.70;88.00
40516;DHT22;26216;53.724;9.898;2023-06-05T00:56:26;12.70;88.80
40516;DHT22;26216;53.724;9.898;2023-06-05T00:58:53;12.60;89.40
40516;DHT22;26216;53.724;9.898;2023-06-05T01:01:19;12.60;90.10
40516;DHT22;26216;53.724;9.898;2023-06-05T01:03:46;12.60;89.70
40516;DHT22;26216;53.724;9.898;2023-06-05T01:06:13;12.60;89.90
40516;DHT22;26216;53.724;9.898;2023-06-05T01:08:42;12.60;89.90
40516;DHT22;26216;53.724;9.898;2023-06-05T01:14:02;12.60;90.50
40516;DHT22;26216;53.724;9.898;2023-06-05T01:16:30;12.60;90.20
40516;DHT22;26216;53.724;9.898;2023-06-05T01:18:59;12.50;90.10
40516;DHT22;26216;53.724;9.898;2023-06-05T01:21:32;12.50;90.10
40516;DHT22;26216;53.724;9.898;2023-06-05T01:23:58;12.50;90.10
40516;DHT22;26216;53.724;9.898;2023-06-05T01:26:32;12.50;90.20
40516;DHT22;26216;53.724;9.898;2023-06-05T01:28:59;12.40;90.20
40516;DHT22;26216;53.724;9.898;2023-06-05T01:31:28;12.40;90.50
40516;DHT22;26216;53.724;9.898;2023-06-05T01:34:00;12.40;90.50
40516;DHT22;26216;53.724;9.898;2023-06-05T01:36:29;12.40;90.40
40516;DHT22;26216;53.724;9.898;2023-06-05T01:38:56;12.40;90.40
40516;DHT22;26216;53.724;9.898;2023-06-05T01:41:23;12.30;90.40
40516;DHT22;26216;53.724;9.898;2023-06-05T01:43:51;12.30;90.30
40516;DHT22;26216;53.724;9.898;2023-06-05T01:46:20;12.30;90.30
40516;DHT22;26216;53.724;9.898;2023-06-05T01:48:46;12.30;90.30
40516;DHT22;26216;53.724;9.898;2023-06-05T01:51:13;12.20;90.30
40516;DHT22;26216;53.724;9.898;2023-06-05T01:53:39;12.20;90.30
40516;DHT22;26216;53.724;9.898;2023-06-05T01:56:05;12.20;90.40
40516;DHT22;26216;53.724;9.898;2023-06-05T01:58:34;12.20;90.50
40516;DHT22;26216;53.724;9.898;2023-06-05T02:01:01;12.10;90.50
40516;DHT22;26216;53.724;9.898;2023-06-05T02:03:28;12.10;90.50
40516;DHT22;26216;53.724;9.898;2023-06-05T02:05:54;12.10;90.50
40516;DHT22;26216;53.724;9.898;2023-06-05T02:08:20;12.10;90.40
40516;DHT22;26216;53.724;9.898;2023-06-05T02:10:51;12.00;90.50
40516;DHT22;26216;53.724;9.898;2023-06-05T02:13:18;12.00;90.60
40516;DHT22;26216;53.724;9.898;2023-06-05T02:15:45;12.00;90.70
40516;DHT22;26216;53.724;9.898;2023-06-05T02:18:12;12.00;90.70
40516;DHT22;26216;53.724;9.898;2023-06-05T02:20:40;11.90;90.70
40516;DHT22;26216;53.724;9.898;2023-06-05T02:23:06;11.90;90.70
40516;DHT22;26216;53.724;9.898;2023-06-05T02:25:32;11.90;90.80
40516;DHT22;26216;53.724;9.898;2023-06-05T02:27:58;11.80;91.10
40516;DHT22;26216;53.724;9.898;2023-06-05T02:30:24;11.80;90.80
40516;DHT22;26216;53.724;9.898;2023-06-05T02:32:53;11.80;90.80
40516;DHT22;26216;53.724;9.898;2023-06-05T02:35:26;11.80;90.90
40516;DHT22;26216;53.724;9.898;2023-06-05T02:37:52;11.80;91.00
40516;DHT22;26216;53.724;9.898;2023-06-05T02:40:18;11.80;91.00
40516;DHT22;26216;53.724;9.898;2023-06-05T02:42:44;11.70;91.00
40516;DHT22;26216;53.724;9.898;2023-06-05T02:45:10;11.70;91.00
40516;DHT22;26216;53.724;9.898;2023-06-05T02:47:36;11.60;91.00
40516;DHT22;26216;53.724;9.898;2023-06-05T02:50:02;11.60;91.00
40516;DHT22;26216;53.724;9.898;2023-06-05T02:52:28;11.60;91.10
40516;DHT22;26216;53.724;9.898;2023-06-05T02:54:55;11.60;91.10
40516;DHT22;26216;53.724;9.898;2023-06-05T02:57:21;11.60;91.10
40516;DHT22;26216;53.724;9.898;2023-06-05T02:59:47;11.50;91.20
40516;DHT22;26216;53.724;9.898;2023-06-05T03:02:12;11.50;91.20
40516;DHT22;26216;53.724;9.898;2023-06-05T03:04:38;11.50;91.20
40516;DHT22;26216;53.724;9.898;2023-06-05T03:07:08;11.50;91.20
40516;DHT22;26216;53.724;9.898;2023-06-05T03:09:35;11.50;91.20
40516;DHT22;26216;53.724;9.898;2023-06-05T03:12:02;11.50;91.30
40516;DHT22;26216;53.724;9.898;2023-06-05T03:14:48;11.50;91.30
40516;DHT22;26216;53.724;9.898;2023-06-05T03:17:14;11.50;91.30
40516;DHT22;26216;53.724;9.898;2023-06-05T03:19:40;11.40;91.40
40516;DHT22;26216;53.724;9.898;2023-06-05T03:22:11;11.40;91.40
40516;DHT22;26216;53.724;9.898;2023-06-05T03:24:38;11.40;91.50
40516;DHT22;26216;53.724;9.898;2023-06-05T03:27:04;11.40;91.50
40516;DHT22;26216;53.724;9.898;2023-06-05T03:29:30;11.40;91.60
40516;DHT22;26216;53.724;9.898;2023-06-05T03:31:56;11.40;91.70
40516;DHT22;26216;53.724;9.898;2023-06-05T03:34:21;11.40;91.70
40516;DHT22;26216;53.724;9.898;2023-06-05T03:36:52;11.40;91.80
40516;DHT22;26216;53.724;9.898;2023-06-05T03:39:18;11.40;91.90
40516;DHT22;26216;53.724;9.898;2023-06-05T03:41:44;11.40;92.10
40516;DHT22;26216;53.724;9.898;2023-06-05T03:44:10;11.50;92.30
40516;DHT22;26216;53.724;9.898;2023-06-05T03:46:36;11.50;93.10
40516;DHT22;26216;53.724;9.898;2023-06-05T03:49:02;11.50;93.60
40516;DHT22;26216;53.724;9.898;2023-06-05T03:51:34;11.50;93.40
40516;DHT22;26216;53.724;9.898;2023-06-05T03:54:01;11.60;93.60
40516;DHT22;26216;53.724;9.898;2023-06-05T03:56:29;11.60;93.70
40516;DHT22;26216;53.724;9.898;2023-06-05T03:59:02;11.70;93.90
40516;DHT22;26216;53.724;9.898;2023-06-05T04:01:37;11.80;94.20
40516;DHT22;26216;53.724;9.898;2023-06-05T04:04:06;11.80;94.70
40516;DHT22;26216;53.724;9.898;2023-06-05T04:06:33;11.90;94.90
40516;DHT22;26216;53.724;9.898;2023-06-05T04:09:00;12.00;94.90
40516;DHT22;26216;53.724;9.898;2023-06-05T04:11:26;12.10;95.20
40516;DHT22;26216;53.724;9.898;2023-06-05T04:13:53;12.10;95.00
40516;DHT22;26216;53.724;9.898;2023-06-05T04:16:19;12.30;95.20
40516;DHT22;26216;53.724;9.898;2023-06-05T04:18:46;12.30;95.20
40516;DHT22;26216;53.724;9.898;2023-06-05T04:21:12;12.40;95.70
40516;DHT22;26216;53.724;9.898;2023-06-05T04:23:37;12.50;95.50
40516;DHT22;26216;53.724;9.898;2023-06-05T04:26:03;12.60;95.50
40516;DHT22;26216;53.724;9.898;2023-06-05T04:28:30;12.80;95.60
40516;DHT22;26216;53.724;9.898;2023-06-05T04:30:56;12.90;96.10
40516;DHT22;26216;53.724;9.898;2023-06-05T04:33:22;13.00;95.90
40516;DHT22;26216;53.724;9.898;2023-06-05T04:35:48;13.00;95.80
40516;DHT22;26216;53.724;9.898;2023-06-05T04:38:14;13.10;96.10
40516;DHT22;26216;53.724;9.898;2023-06-05T04:40:40;13.20;96.10
40516;DHT22;26216;53.724;9.898;2023-06-05T04:43:06;13.30;95.70
40516;DHT22;26216;53.724;9.898;2023-06-05T04:45:34;13.40;95.70
40516;DHT22;26216;53.724;9.898;2023-06-05T04:48:00;13.50;95.70
40516;DHT22;26216;53.724;9.898;2023-06-05T04:50:27;13.50;95.70
40516;DHT22;26216;53.724;9.898;2023-06-05T04:52:54;13.60;95.70
40516;DHT22;26216;53.724;9.898;2023-06-05T04:55:20;13.70;95.80
40516;DHT22;26216;53.724;9.898;2023-06-05T04:57:46;13.80;95.90
40516;DHT22;26216;53.724;9.898;2023-06-05T05:00:15;13.90;95.90
40516;DHT22;26216;53.724;9.898;2023-06-05T05:02:41;14.00;95.90
40516;DHT22;26216;53.724;9.898;2023-06-05T05:05:07;14.10;95.80
40516;DHT22;26216;53.724;9.898;2023-06-05T05:07:33;14.10;95.80
40516;DHT22;26216;53.724;9.898;2023-06-05T05:10:01;14.20;95.80
40516;DHT22;26216;53.724;9.898;2023-06-05T05:12:27;14.30;95.80
40516;DHT22;26216;53.724;9.898;2023-06-05T05:14:53;14.40;95.90
40516;DHT22;26216;53.724;9.898;2023-06-05T05:17:18;14.50;95.90
40516;DHT22;26216;53.724;9.898;2023-06-05T05:19:45;14.60;95.90
40516;DHT22;26216;53.724;9.898;2023-06-05T05:22:11;14.70;95.80
40516;DHT22;26216;53.724;9.898;2023-06-05T05:24:37;14.80;95.80
40516;DHT22;26216;53.724;9.898;2023-06-05T05:27:03;14.90;95.80
40516;DHT22;26216;53.724;9.898;2023-06-05T05:29:29;15.00;95.80
40516;DHT22;26216;53.724;9.898;2023-06-05T05:31:55;15.20;95.80
40516;DHT22;26216;53.724;9.898;2023-06-05T05:34:21;15.30;95.80
40516;DHT22;26216;53.724;9.898;2023-06-05T05:36:47;15.40;95.80
40516;DHT22;26216;53.724;9.898;2023-06-05T05:39:13;15.50;95.80
40516;DHT22;26216;53.724;9.898;2023-06-05T05:41:39;15.60;95.80
40516;DHT22;26216;53.724;9.898;2023-06-05T05:44:05;15.70;95.80
40516;DHT22;26216;53.724;9.898;2023-06-05T05:46:31;15.80;95.70
40516;DHT22;26216;53.724;9.898;2023-06-05T05:48:57;15.90;95.70
40516;DHT22;26216;53.724;9.898;2023-06-05T05:51:22;16.00;95.80
40516;DHT22;26216;53.724;9.898;2023-06-05T05:53:49;16.10;95.60
40516;DHT22;26216;53.724;9.898;2023-06-05T05:56:15;16.20;95.60
40516;DHT22;26216;53.724;9.898;2023-06-05T05:58:41;16.30;95.60
40516;DHT22;26216;53.724;9.898;2023-06-05T06:01:08;16.40;95.50
40516;DHT22;26216;53.724;9.898;2023-06-05T06:03:34;16.60;95.60
40516;DHT22;26216;53.724;9.898;2023-06-05T06:06:03;16.70;95.50
40516;DHT22;26216;53.724;9.898;2023-06-05T06:08:33;16.80;95.30
40516;DHT22;26216;53.724;9.898;2023-06-05T06:10:59;17.00;95.20
40516;DHT22;26216;53.724;9.898;2023-06-05T06:13:25;17.00;95.20
40516;DHT22;26216;53.724;9.898;2023-06-05T06:15:51;17.10;95.00
40516;DHT22;26216;53.724;9.898;2023-06-05T06:18:17;17.20;94.90
40516;DHT22;26216;53.724;9.898;2023-06-05T06:20:44;17.30;95.00
40516;DHT22;26216;53.724;9.898;2023-06-05T06:23:10;17.40;95.10
40516;DHT22;26216;53.724;9.898;2023-06-05T06:25:36;17.50;95.10
40516;DHT22;26216;53.724;9.898;2023-06-05T06:28:03;17.60;94.90
40516;DHT22;26216;53.724;9.898;2023-06-05T06:30:29;17.80;94.80
40516;DHT22;26216;53.724;9.898;2023-06-05T06:32:56;17.90;94.90
40516;DHT22;26216;53.724;9.898;2023-06-05T06:35:29;18.00;94.70
40516;DHT22;26216;53.724;9.898;2023-06-05T06:37:58;18.10;94.50
40516;DHT22;26216;53.724;9.898;2023-06-05T06:40:24;18.20;94.60
40516;DHT22;26216;53.724;9.898;2023-06-05T06:42:50;18.30;94.50
40516;DHT22;26216;53.724;9.898;2023-06-05T06:45:17;18.40;94.40
40516;DHT22;26216;53.724;9.898;2023-06-05T06:47:43;18.50;94.40
40516;DHT22;26216;53.724;9.898;2023-06-05T06:50:09;18.60;94.30
40516;DHT22;26216;53.724;9.898;2023-06-05T06:52:35;18.80;93.80
40516;DHT22;26216;53.724;9.898;2023-06-05T06:55:01;18.90;93.40
40516;DHT22;26216;53.724;9.898;2023-06-05T06:57:27;19.00;93.60
40516;DHT22;26216;53.724;9.898;2023-06-05T06:59:53;19.00;93.40
40516;DHT22;26216;53.724;9.898;2023-06-05T07:02:20;19.10;93.50
40516;DHT22;26216;53.724;9.898;2023-06-05T07:04:46;19.10;93.50
40516;DHT22;26216;53.724;9.898;2023-06-05T07:07:17;19.20;93.10
40516;DHT22;26216;53.724;9.898;2023-06-05T07:09:45;19.30;93.00
40516;DHT22;26216;53.724;9.898;2023-06-05T07:12:13;19.40;92.70
40516;DHT22;26216;53.724;9.898;2023-06-05T07:14:39;19.40;92.30
40516;DHT22;26216;53.724;9.898;2023-06-05T07:17:06;19.50;92.70
40516;DHT22;26216;53.724;9.898;2023-06-05T07:19:33;19.50;92.80
40516;DHT22;26216;53.724;9.898;2023-06-05T07:22:01;19.60;92.10
40516;DHT22;26216;53.724;9.898;2023-06-05T07:24:30;19.70;92.80
40516;DHT22;26216;53.724;9.898;2023-06-05T07:26:59;19.80;91.90
40516;DHT22;26216;53.724;9.898;2023-06-05T07:29:25;19.90;92.30
40516;DHT22;26216;53.724;9.898;2023-06-05T07:31:53;20.00;92.30
40516;DHT22;26216;53.724;9.898;2023-06-05T07:34:21;20.00;92.30
40516;DHT22;26216;53.724;9.898;2023-06-05T07:36:49;20.10;91.70
40516;DHT22;26216;53.724;9.898;2023-06-05T07:39:16;20.20;90.60
40516;DHT22;26216;53.724;9.898;2023-06-05T07:41:42;20.20;90.90
40516;DHT22;26216;53.724;9.898;2023-06-05T07:44:15;20.20;90.70
40516;DHT22;26216;53.724;9.898;2023-06-05T07:46:44;20.30;91.20
40516;DHT22;26216;53.724;9.898;2023-06-05T07:49:10;20.30;91.00
40516;DHT22;26216;53.724;9.898;2023-06-05T07:51:36;20.40;91.40
40516;DHT22;26216;53.724;9.898;2023-06-05T07:54:05;20.40;91.30
40516;DHT22;26216;53.724;9.898;2023-06-05T07:56:31;20.60;91.40
40516;DHT22;26216;53.724;9.898;2023-06-05T07:58:57;20.60;91.00
40516;DHT22;26216;53.724;9.898;2023-06-05T08:01:23;20.80;90.90
40516;DHT22;26216;53.724;9.898;2023-06-05T08:03:49;20.80;90.00
40516;DHT22;26216;53.724;9.898;2023-06-05T08:06:15;20.90;90.80
40516;DHT22;26216;53.724;9.898;2023-06-05T08:08:42;21.00;90.60
40516;DHT22;26216;53.724;9.898;2023-06-05T08:11:11;21.00;90.30
40516;DHT22;26216;53.724;9.898;2023-06-05T08:13:37;21.10;90.70
40516;DHT22;26216;53.724;9.898;2023-06-05T08:16:05;21.20;90.80
40516;DHT22;26216;53.724;9.898;2023-06-05T08:18:30;21.30;90.90
40516;DHT22;26216;53.724;9.898;2023-06-05T08:20:56;21.40;90.40
40516;DHT22;26216;53.724;9.898;2023-06-05T08:23:22;21.50;90.50
40516;DHT22;26216;53.724;9.898;2023-06-05T08:25:48;21.60;90.80
40516;DHT22;26216;53.724;9.898;2023-06-05T08:28:15;21.70;90.20
40516;DHT22;26216;53.724;9.898;2023-06-05T08:30:41;21.80;90.10
40516;DHT22;26216;53.724;9.898;2023-06-05T08:33:07;21.90;89.60
40516;DHT22;26216;53.724;9.898;2023-06-05T08:35:33;22.00;90.20
40516;DHT22;26216;53.724;9.898;2023-06-05T08:37:59;22.10;88.10
40516;DHT22;26216;53.724;9.898;2023-06-05T08:40:28;22.10;88.80
40516;DHT22;26216;53.724;9.898;2023-06-05T08:42:55;22.20;87.80
40516;DHT22;26216;53.724;9.898;2023-06-05T08:45:21;22.20;87.70
40516;DHT22;26216;53.724;9.898;2023-06-05T08:47:50;22.30;88.60
40516;DHT22;26216;53.724;9.898;2023-06-05T08:50:16;22.40;89.40
40516;DHT22;26216;53.724;9.898;2023-06-05T08:52:43;22.50;90.00
40516;DHT22;26216;53.724;9.898;2023-06-05T08:55:11;22.60;86.40
40516;DHT22;26216;53.724;9.898;2023-06-05T08:57:40;22.70;85.90
40516;DHT22;26216;53.724;9.898;2023-06-05T09:00:07;22.80;87.40
40516;DHT22;26216;53.724;9.898;2023-06-05T09:02:38;22.80;87.00
40516;DHT22;26216;53.724;9.898;2023-06-05T09:05:05;23.00;86.60
40516;DHT22;26216;53.724;9.898;2023-06-05T09:07:32;23.00;87.00
40516;DHT22;26216;53.724;9.898;2023-06-05T09:09:58;23.10;88.00
40516;DHT22;26216;53.724;9.898;2023-06-05T09:12:24;23.20;87.20
40516;DHT22;26216;53.724;9.898;2023-06-05T09:14:51;23.30;88.10
40516;DHT22;26216;53.724;9.898;2023-06-05T09:17:17;23.40;86.00
40516;DHT22;26216;53.724;9.898;2023-06-05T09:19:44;23.50;84.80
40516;DHT22;26216;53.724;9.898;2023-06-05T09:22:11;23.60;82.50
40516;DHT22;26216;53.724;9.898;2023-06-05T09:24:39;23.60;81.60
40516;DHT22;26216;53.724;9.898;2023-06-05T09:27:10;23.70;83.90
40516;DHT22;26216;53.724;9.898;2023-06-05T09:29:37;23.70;84.40
40516;DHT22;26216;53.724;9.898;2023-06-05T09:32:09;23.80;84.30
40516;DHT22;26216;53.724;9.898;2023-06-05T09:34:35;23.80;83.00
40516;DHT22;26216;53.724;9.898;2023-06-05T09:37:04;23.90;81.90
40516;DHT22;26216;53.724;9.898;2023-06-05T09:39:33;24.00;84.50
40516;DHT22;26216;53.724;9.898;2023-06-05T09:41:59;24.10;83.10
40516;DHT22;26216;53.724;9.898;2023-06-05T09:44:29;24.10;82.40
40516;DHT22;26216;53.724;9.898;2023-06-05T09:49:30;24.20;74.20
40516;DHT22;26216;53.724;9.898;2023-06-05T09:51:58;24.20;78.70
40516;DHT22;26216;53.724;9.898;2023-06-05T09:54:28;24.30;78.90
40516;DHT22;26216;53.724;9.898;2023-06-05T09:57:00;24.30;78.30
40516;DHT22;26216;53.724;9.898;2023-06-05T09:59:30;24.30;77.90
40516;DHT22;26216;53.724;9.898;2023-06-05T10:02:03;24.30;77.50
40516;DHT22;26216;53.724;9.898;2023-06-05T10:04:37;24.30;78.90
40516;DHT22;26216;53.724;9.898;2023-06-05T10:07:04;24.30;75.50
40516;DHT22;26216;53.724;9.898;2023-06-05T10:09:31;24.30;74.70
40516;DHT22;26216;53.724;9.898;2023-06-05T10:12:00;24.30;76.80
40516;DHT22;26216;53.724;9.898;2023-06-05T10:14:27;24.40;75.50
40516;DHT22;26216;53.724;9.898;2023-06-05T10:16:53;24.40;75.80
40516;DHT22;26216;53.724;9.898;2023-06-05T10:19:20;24.50;73.80
40516;DHT22;26216;53.724;9.898;2023-06-05T10:21:50;24.50;75.60
40516;DHT22;26216;53.724;9.898;2023-06-05T10:24:26;24.60;75.30
40516;DHT22;26216;53.724;9.898;2023-06-05T10:30:13;24.70;77.60
40516;DHT22;26216;53.724;9.898;2023-06-05T10:33:31;24.90;75.50
40516;DHT22;26216;53.724;9.898;2023-06-05T10:35:48;25.00;77.80
40516;DHT22;26216;53.724;9.898;2023-06-05T10:38:20;25.20;79.20
40516;DHT22;26216;53.724;9.898;2023-06-05T10:41:01;25.30;79.40
40516;DHT22;26216;53.724;9.898;2023-06-05T10:43:48;25.50;79.80
40516;DHT22;26216;53.724;9.898;2023-06-05T10:49:11;25.80;74.60
40516;DHT22;26216;53.724;9.898;2023-06-05T10:59:28;26.20;71.60
40516;DHT22;26216;53.724;9.898;2023-06-05T11:07:27;26.10;69.80
40516;DHT22;26216;53.724;9.898;2023-06-05T11:15:02;25.70;68.20
40516;DHT22;26216;53.724;9.898;2023-06-05T11:17:39;25.70;70.00
40516;DHT22;26216;53.724;9.898;2023-06-05T11:25:29;25.70;70.40
40516;DHT22;26216;53.724;9.898;2023-06-05T11:28:02;25.70;69.30
40516;DHT22;26216;53.724;9.898;2023-06-05T11:30:39;25.80;65.00
40516;DHT22;26216;53.724;9.898;2023-06-05T11:33:09;25.80;68.70
40516;DHT22;26216;53.724;9.898;2023-06-05T11:35:39;25.90;69.70
40516;DHT22;26216;53.724;9.898;2023-06-05T11:40:35;25.90;69.50
40516;DHT22;26216;53.724;9.898;2023-06-05T11:43:06;26.00;72.10
40516;DHT22;26216;53.724;9.898;2023-06-05T11:45:33;26.10;72.10
40516;DHT22;26216;53.724;9.898;2023-06-05T11:48:14;26.20;70.50
40516;DHT22;26216;53.724;9.898;2023-06-05T11:50:52;26.30;68.60
40516;DHT22;26216;53.724;9.898;2023-06-05T11:53:20;26.40;67.60
40516;DHT22;26216;53.724;9.898;2023-06-05T11:55:46;26.50;69.00
40516;DHT22;26216;53.724;9.898;2023-06-05T11:58:25;26.50;65.90
40516;DHT22;26216;53.724;9.898;2023-06-05T12:00:52;26.60;67.10
40516;DHT22;26216;53.724;9.898;2023-06-05T12:03:21;26.70;70.10
40516;DHT22;26216;53.724;9.898;2023-06-05T12:05:48;26.80;68.30
40516;DHT22;26216;53.724;9.898;2023-06-05T12:08:25;26.90;68.10
40516;DHT22;26216;53.724;9.898;2023-06-05T12:10:52;27.00;67.60
40516;DHT22;26216;53.724;9.898;2023-06-05T12:13:18;27.10;67.20
40516;DHT22;26216;53.724;9.898;2023-06-05T12:15:56;27.10;65.10
40516;DHT22;26216;53.724;9.898;2023-06-05T12:18:33;27.10;60.30
40516;DHT22;26216;53.724;9.898;2023-06-05T12:21:00;27.10;64.50
40516;DHT22;26216;53.724;9.898;2023-06-05T12:23:28;27.00;65.70
40516;DHT22;26216;53.724;9.898;2023-06-05T12:26:01;27.00;65.30
40516;DHT22;26216;53.724;9.898;2023-06-05T12:28:29;27.00;63.40
40516;DHT22;26216;53.724;9.898;2023-06-05T12:30:57;26.90;65.00
40516;DHT22;26216;53.724;9.898;2023-06-05T12:33:23;26.90;65.40
40516;DHT22;26216;53.724;9.898;2023-06-05T12:36:07;27.00;66.20
40516;DHT22;26216;53.724;9.898;2023-06-05T12:38:40;27.10;65.30
40516;DHT22;26216;53.724;9.898;2023-06-05T12:41:10;27.10;65.30
40516;DHT22;26216;53.724;9.898;2023-06-05T12:43:36;27.10;67.20
40516;DHT22;26216;53.724;9.898;2023-06-05T12:46:02;27.30;67.80
40516;DHT22;26216;53.724;9.898;2023-06-05T12:48:28;27.40;68.80
40516;DHT22;26216;53.724;9.898;2023-06-05T12:50:55;27.50;69.20
40516;DHT22;26216;53.724;9.898;2023-06-05T12:53:22;27.70;68.80
40516;DHT22;26216;53.724;9.898;2023-06-05T12:55:48;27.80;66.30
40516;DHT22;26216;53.724;9.898;2023-06-05T12:58:14;28.00;65.30
40516;DHT22;26216;53.724;9.898;2023-06-05T13:00:40;28.10;66.00
40516;DHT22;26216;53.724;9.898;2023-06-05T13:03:07;28.20;65.00
40516;DHT22;26216;53.724;9.898;2023-06-05T13:05:34;28.30;64.20
40516;DHT22;26216;53.724;9.898;2023-06-05T13:08:00;28.30;64.60
40516;DHT22;26216;53.724;9.898;2023-06-05T13:10:26;28.40;64.00
40516;DHT22;26216;53.724;9.898;2023-06-05T13:12:52;28.40;65.10
40516;DHT22;26216;53.724;9.898;2023-06-05T13:15:18;28.40;63.80
40516;DHT22;26216;53.724;9.898;2023-06-05T13:17:44;28.50;64.10
40516;DHT22;26216;53.724;9.898;2023-06-05T13:20:12;28.60;64.80
40516;DHT22;26216;53.724;9.898;2023-06-05T13:22:39;28.70;65.70
40516;DHT22;26216;53.724;9.898;2023-06-05T13:25:06;28.80;63.90
40516;DHT22;26216;53.724;9.898;2023-06-05T13:27:32;28.80;64.20
40516;DHT22;26216;53.724;9.898;2023-06-05T13:29:58;28.90;60.10
40516;DHT22;26216;53.724;9.898;2023-06-05T13:32:24;28.90;62.30
40516;DHT22;26216;53.724;9.898;2023-06-05T13:34:50;29.00;61.20
40516;DHT22;26216;53.724;9.898;2023-06-05T13:37:16;29.00;62.60
40516;DHT22;26216;53.724;9.898;2023-06-05T13:39:43;29.00;62.60
40516;DHT22;26216;53.724;9.898;2023-06-05T13:42:10;29.10;61.80
40516;DHT22;26216;53.724;9.898;2023-06-05T13:44:37;29.10;61.50
40516;DHT22;26216;53.724;9.898;2023-06-05T13:47:04;29.10;58.00
40516;DHT22;26216;53.724;9.898;2023-06-05T13:49:30;29.10;60.00
40516;DHT22;26216;53.724;9.898;2023-06-05T13:51:57;29.10;59.70
40516;DHT22;26216;53.724;9.898;2023-06-05T13:54:23;29.10;55.50
40516;DHT22;26216;53.724;9.898;2023-06-05T13:56:49;29.00;59.40
40516;DHT22;26216;53.724;9.898;2023-06-05T13:59:17;29.00;60.10
40516;DHT22;26216;53.724;9.898;2023-06-05T14:01:43;29.10;60.80
40516;DHT22;26216;53.724;9.898;2023-06-05T14:04:09;29.10;61.10
40516;DHT22;26216;53.724;9.898;2023-06-05T14:06:35;29.10;61.30
40516;DHT22;26216;53.724;9.898;2023-06-05T14:09:04;29.20;60.00
40516;DHT22;26216;53.724;9.898;2023-06-05T14:11:31;29.20;58.00
40516;DHT22;26216;53.724;9.898;2023-06-05T14:13:57;29.30;60.00
40516;DHT22;26216;53.724;9.898;2023-06-05T14:16:24;29.40;59.00
40516;DHT22;26216;53.724;9.898;2023-06-05T14:18:51;29.40;57.90
40516;DHT22;26216;53.724;9.898;2023-06-05T14:21:17;29.50;59.00
40516;DHT22;26216;53.724;9.898;2023-06-05T14:23:43;29.50;56.30
40516;DHT22;26216;53.724;9.898;2023-06-05T14:26:09;29.60;57.10
40516;DHT22;26216;53.724;9.898;2023-06-05T14:28:36;29.60;56.30
40516;DHT22;26216;53.724;9.898;2023-06-05T14:31:02;29.60;53.80
40516;DHT22;26216;53.724;9.898;2023-06-05T14:33:28;29.60;53.10
40516;DHT22;26216;53.724;9.898;2023-06-05T14:35:54;29.50;55.70
40516;DHT22;26216;53.724;9.898;2023-06-05T14:38:20;29.50;54.40
40516;DHT22;26216;53.724;9.898;2023-06-05T14:40:46;29.40;53.20
40516;DHT22;26216;53.724;9.898;2023-06-05T14:43:15;29.30;52.50
40516;DHT22;26216;53.724;9.898;2023-06-05T14:45:41;29.30;54.60
40516;DHT22;26216;53.724;9.898;2023-06-05T14:48:08;29.30;56.50
40516;DHT22;26216;53.724;9.898;2023-06-05T14:50:37;29.30;56.20
40516;DHT22;26216;53.724;9.898;2023-06-05T14:53:02;29.40;57.70
40516;DHT22;26216;53.724;9.898;2023-06-05T14:55:28;29.60;58.60
40516;DHT22;26216;53.724;9.898;2023-06-05T14:57:54;29.80;56.60
40516;DHT22;26216;53.724;9.898;2023-06-05T15:00:20;30.00;56.80
40516;DHT22;26216;53.724;9.898;2023-06-05T15:02:46;30.20;56.20
40516;DHT22;26216;53.724;9.898;2023-06-05T15:05:12;30.40;58.10
40516;DHT22;26216;53.724;9.898;2023-06-05T15:07:41;30.60;57.00
40516;DHT22;26216;53.724;9.898;2023-06-05T15:10:10;30.80;56.40
40516;DHT22;26216;53.724;9.898;2023-06-05T15:12:38;31.10;54.60
40516;DHT22;26216;53.724;9.898;2023-06-05T15:15:07;31.20;52.20
40516;DHT22;26216;53.724;9.898;2023-06-05T15:17:33;31.40;57.50
40516;DHT22;26216;53.724;9.898;2023-06-05T15:19:59;31.70;55.80
40516;DHT22;26216;53.724;9.898;2023-06-05T15:22:25;31.90;55.90
40516;DHT22;26216;53.724;9.898;2023-06-05T15:24:51;32.10;49.30
40516;DHT22;26216;53.724;9.898;2023-06-05T15:27:18;32.10;50.50
40516;DHT22;26216;53.724;9.898;2023-06-05T15:29:45;32.20;47.30
40516;DHT22;26216;53.724;9.898;2023-06-05T15:32:11;32.10;50.80
40516;DHT22;26216;53.724;9.898;2023-06-05T15:34:37;32.10;52.80
40516;DHT22;26216;53.724;9.898;2023-06-05T15:37:06;32.10;51.20
40516;DHT22;26216;53.724;9.898;2023-06-05T15:39:32;32.30;53.20
40516;DHT22;26216;53.724;9.898;2023-06-05T15:42:01;32.30;50.90
40516;DHT22;26216;53.724;9.898;2023-06-05T15:44:27;32.30;51.60
40516;DHT22;26216;53.724;9.898;2023-06-05T15:46:53;32.30;50.00
40516;DHT22;26216;53.724;9.898;2023-06-05T15:49:19;32.40;52.30
40516;DHT22;26216;53.724;9.898;2023-06-05T15:51:45;32.40;52.50
40516;DHT22;26216;53.724;9.898;2023-06-05T15:54:13;32.50;52.10
40516;DHT22;26216;53.724;9.898;2023-06-05T15:56:40;32.70;50.10
40516;DHT22;26216;53.724;9.898;2023-06-05T15:59:06;32.90;48.70
40516;DHT22;26216;53.724;9.898;2023-06-05T16:01:32;33.00;50.30
40516;DHT22;26216;53.724;9.898;2023-06-05T16:03:57;33.10;49.10
40516;DHT22;26216;53.724;9.898;2023-06-05T16:06:23;33.00;48.70
40516;DHT22;26216;53.724;9.898;2023-06-05T16:08:49;33.00;47.80